bourbon.io alexa rank chart, bourbon.io alexa rank daily changes

bourbon.io alexa rank chart, bourbon.io alexa rank daily changes

bourbon.io
Actual rank:
614 860

RANK HISTORY

Date Rank Diff
2018/05/27 614 860 +327 640
2018/05/26 287 220 -154 034
2018/05/25 441 254 -68 952
2018/05/24 510 206 +121 963
2018/05/23 388 243 -127 565
2018/05/22 515 808 +369 870
2018/05/20 145 938 -84 302
2018/05/18 230 240 -536 650
2018/05/17 766 890 +168 688
2018/05/16 598 202 -81 791
2018/05/15 679 993 +485 706
2018/05/14 194 287 -435 858
2018/05/13 630 145 +333 101
2018/05/10 297 044 +28 552
2018/05/09 268 492 -84 114
2018/05/07 352 606 -615 241
2018/05/06 967 847 +14 799
2018/05/04 953 048 +524 146
2018/05/03 428 902 +56 752
2018/05/01 372 150 +170 485
2018/04/30 201 665 -438 530
2018/04/29 640 195 -242 448
2018/04/28 882 643 +191 501
2018/04/26 691 142 +434 321
2018/04/25 256 821 -107 263
2018/04/24 364 084 +295 035
2018/04/21 69 049 -374 680
2018/04/20 443 729 -187 865
2018/04/19 631 594 +217 697
2018/04/14 413 897 -253 637
2018/04/13 667 534 -15 788
2018/04/12 683 322 -63 008
2018/04/11 746 330 +251 451
2018/04/08 494 879 +406 601
2018/04/05 88 278 -911 645
2018/04/02 999 923 +572 281
2018/04/01 427 642 +345 241
2018/03/30 82 401 -256 189
2018/03/29 338 590 -143 976
2018/03/28 482 566

WIDGET FOR YOUR SITE

DOMAINS WITH THE NEAREST RANK

Domain Rank
hungrynovelist.wordpress.com 614 855
redkings.com 614 856
tv-radio.online 614 857
extrasports.com 614 858
surveynoticias.com 614 859
bourbon.io 614 860
firestone.fr 614 861
hollywoodbodyjewelry.com 614 862
hr-solutions.space 614 863
sarah-mcdonald.com 614 864
spermaschlampen.tumblr.com 614 865

DOMAINS WITH THE NEAREST RANK BY TLD .io

Domain Rank
ohmyquiz.io 611 594
open-explorer.io 611 654
repurpose.io 612 514
teamextension.io 613 387
codox.io 614 653
bourbon.io 614 860
exosite.io 615 177
multiex.io 615 322
setka.io 615 882
coinpulse.io 615 910
karbo.io 616 753